createdAt,value
2018-04-09T00:02:10.505Z,66.60
2018-04-09T00:04:39.328Z,66.70
2018-04-09T00:07:07.463Z,66.70
2018-04-09T00:09:36.300Z,66.90
2018-04-09T00:12:04.376Z,66.90
2018-04-09T00:14:32.612Z,67.10
2018-04-09T00:17:00.617Z,66.90
2018-04-09T00:19:28.657Z,67.30
2018-04-09T00:21:56.722Z,67.80
2018-04-09T00:24:24.761Z,67.50
2018-04-09T00:26:52.908Z,67.70
2018-04-09T00:29:20.968Z,67.60
2018-04-09T00:31:49.039Z,67.30
2018-04-09T00:34:17.189Z,67.20
2018-04-09T00:36:45.192Z,67.20
2018-04-09T00:39:13.268Z,67.30
2018-04-09T00:41:41.346Z,67.40
2018-04-09T00:44:09.430Z,67.60
2018-04-09T00:46:37.476Z,67.90
2018-04-09T00:49:05.540Z,67.80
2018-04-09T00:51:33.595Z,67.90
2018-04-09T00:54:01.669Z,67.80
2018-04-09T00:56:29.716Z,67.90
2018-04-09T00:58:58.547Z,68.10
2018-04-09T01:01:26.604Z,68.10
2018-04-09T01:03:54.709Z,68.50
2018-04-09T01:06:22.751Z,68.60
2018-04-09T01:08:50.806Z,68.80
2018-04-09T01:11:18.905Z,68.90
2018-04-09T01:13:46.975Z,69.20
2018-04-09T01:16:15.033Z,69.20
2018-04-09T01:18:43.115Z,69.20
2018-04-09T01:21:11.224Z,69.40
2018-04-09T01:23:39.260Z,69.70
2018-04-09T01:26:07.332Z,70.10
2018-04-09T01:28:35.382Z,70.00
2018-04-09T01:31:03.552Z,69.80
2018-04-09T01:33:31.644Z,69.80
2018-04-09T01:35:59.702Z,70.00
2018-04-09T01:38:27.864Z,70.00
2018-04-09T01:40:55.904Z,70.20
2018-04-09T01:43:23.937Z,70.50
2018-04-09T01:45:52.000Z,70.50
2018-04-09T01:48:20.084Z,70.80
2018-04-09T01:50:48.140Z,70.70
2018-04-09T01:53:16.211Z,70.80
2018-04-09T01:55:44.260Z,71.00
2018-04-09T01:58:12.436Z,71.40
2018-04-09T02:00:40.477Z,71.60
2018-04-09T02:03:08.514Z,71.70
2018-04-09T02:05:37.571Z,71.90
2018-04-09T02:08:05.645Z,72.20
2018-04-09T02:10:33.711Z,72.20
2018-04-09T02:13:01.748Z,71.70
2018-04-09T02:15:29.813Z,72.20
2018-04-09T02:17:57.959Z,72.40
2018-04-09T02:20:26.010Z,72.60
2018-04-09T02:22:54.042Z,72.50
2018-04-09T02:25:22.884Z,72.70
2018-04-09T02:27:50.974Z,72.60
2018-04-09T02:30:19.036Z,72.90
2018-04-09T02:32:47.708Z,72.90
2018-04-09T02:35:15.904Z,73.30
2018-04-09T02:37:43.984Z,73.40
2018-04-09T02:40:12.035Z,73.60
2018-04-09T02:42:40.098Z,74.00
2018-04-09T02:45:08.169Z,73.90
2018-04-09T02:47:36.211Z,73.70
2018-04-09T02:50:05.069Z,73.90
2018-04-09T02:52:33.099Z,73.80
2018-04-09T02:55:01.171Z,73.50
2018-04-09T02:57:29.247Z,74.00
2018-04-09T02:59:57.343Z,74.20
2018-04-09T03:02:25.388Z,74.10
2018-04-09T03:04:53.504Z,73.60
2018-04-09T03:07:21.544Z,74.80
2018-04-09T03:09:49.596Z,74.30
2018-04-09T03:12:17.644Z,74.60
2018-04-09T03:14:45.697Z,74.20
2018-04-09T03:17:13.776Z,74.50
2018-04-09T03:19:41.965Z,74.30
2018-04-09T03:22:10.017Z,74.50
2018-04-09T03:24:38.844Z,74.60
2018-04-09T03:27:06.882Z,74.20
2018-04-09T03:29:35.702Z,75.10
2018-04-09T03:32:03.747Z,75.10
2018-04-09T03:34:32.563Z,75.60
2018-04-09T03:37:00.624Z,75.40
2018-04-09T03:39:28.698Z,75.80
2018-04-09T03:41:57.516Z,75.90
2018-04-09T03:44:25.569Z,75.90
2018-04-09T03:46:53.642Z,76.00
2018-04-09T03:49:21.715Z,76.00
2018-04-09T03:51:49.787Z,75.80
2018-04-09T03:54:17.858Z,75.30
2018-04-09T03:56:45.952Z,75.40
2018-04-09T03:59:14.020Z,75.50
2018-04-09T04:01:42.111Z,75.40
2018-04-09T04:04:10.147Z,75.40
2018-04-09T04:06:38.218Z,75.20
2018-04-09T04:09:06.313Z,75.50
2018-04-09T04:11:34.348Z,75.40
2018-04-09T04:14:02.416Z,75.90
2018-04-09T04:16:42.428Z,75.40
2018-04-09T04:19:22.426Z,75.50
2018-04-09T04:21:50.579Z,76.10
2018-04-09T04:24:18.753Z,76.30
2018-04-09T04:26:46.791Z,76.10
2018-04-09T04:29:14.842Z,77.20
2018-04-09T04:31:42.911Z,76.80
2018-04-09T04:34:11.057Z,76.40
2018-04-09T04:36:39.213Z,76.90
2018-04-09T04:39:07.254Z,76.60
2018-04-09T04:41:35.302Z,76.70
2018-04-09T04:44:03.389Z,77.20
2018-04-09T04:46:31.432Z,77.00
2018-04-09T04:48:59.502Z,77.00
2018-04-09T04:51:27.569Z,77.20
2018-04-09T04:53:55.650Z,77.40
2018-04-09T04:56:23.719Z,77.80
2018-04-09T04:58:51.855Z,77.90
2018-04-09T05:01:19.878Z,77.10
2018-04-09T05:03:48.152Z,77.10
2018-04-09T05:06:16.203Z,77.00
2018-04-09T05:08:44.266Z,76.80
2018-04-09T05:11:12.327Z,76.80
2018-04-09T05:13:40.372Z,77.20
2018-04-09T05:16:09.193Z,76.80
2018-04-09T05:18:37.264Z,76.10
2018-04-09T05:21:05.348Z,78.80
2018-04-09T05:23:33.424Z,75.50
2018-04-09T05:26:01.494Z,75.40
2018-04-09T05:28:29.562Z,75.20
2018-04-09T05:30:57.600Z,75.00
2018-04-09T05:33:25.787Z,75.30
2018-04-09T05:35:54.586Z,74.70
2018-04-09T05:38:22.652Z,74.40
2018-04-09T05:40:50.721Z,74.40
2018-04-09T05:43:18.788Z,74.30
2018-04-09T05:45:46.852Z,74.80
2018-04-09T05:48:14.891Z,74.80
2018-04-09T05:50:42.950Z,73.40
2018-04-09T05:53:11.065Z,72.90
2018-04-09T05:55:39.102Z,72.80
2018-04-09T05:58:07.181Z,72.60
2018-04-09T06:00:35.224Z,68.00
2018-04-09T06:03:03.285Z,63.60
2018-04-09T06:05:31.359Z,64.00
2018-04-09T06:07:59.443Z,61.20
2018-04-09T06:10:27.495Z,58.70
2018-04-09T06:12:55.552Z,53.60
2018-04-09T06:15:24.057Z,52.70
2018-04-09T06:17:52.122Z,51.60
2018-04-09T06:20:20.189Z,49.50
2018-04-09T06:22:48.231Z,46.30
2018-04-09T06:25:16.402Z,46.00
2018-04-09T06:27:44.422Z,43.50
2018-04-09T06:30:12.591Z,42.30
2018-04-09T06:32:40.699Z,41.20
2018-04-09T06:35:09.551Z,39.70
2018-04-09T06:37:37.598Z,38.40
2018-04-09T06:40:05.651Z,38.80
2018-04-09T06:42:33.718Z,37.60
2018-04-09T06:45:02.519Z,34.60
2018-04-09T06:47:30.580Z,33.00
2018-04-09T06:49:59.413Z,32.40
2018-04-09T06:52:27.489Z,32.00
2018-04-09T06:54:55.548Z,32.10
2018-04-09T06:57:23.582Z,32.00
2018-04-09T06:59:51.640Z,31.30
2018-04-09T07:02:20.438Z,30.00
2018-04-09T07:04:48.514Z,30.00
2018-04-09T07:07:17.323Z,29.00
2018-04-09T07:09:45.383Z,29.00
2018-04-09T07:12:13.451Z,28.50
2018-04-09T07:14:41.503Z,27.70
2018-04-09T07:17:10.408Z,27.30
2018-04-09T07:19:38.456Z,26.40
2018-04-09T07:22:07.283Z,24.80
2018-04-09T07:24:35.350Z,24.80
2018-04-09T07:27:03.383Z,24.40
2018-04-09T07:29:31.450Z,24.30
2018-04-09T07:31:59.522Z,23.40
2018-04-09T07:34:27.581Z,23.90
2018-04-09T07:36:55.737Z,23.30
2018-04-09T07:39:23.923Z,22.50
2018-04-09T07:41:52.004Z,22.90
2018-04-09T07:44:20.225Z,21.30
2018-04-09T07:46:49.008Z,22.00
2018-04-09T07:49:17.072Z,22.00
2018-04-09T07:51:45.927Z,21.80
2018-04-09T07:54:13.946Z,20.80
2018-04-09T07:56:42.853Z,21.20
2018-04-09T07:59:10.908Z,20.80
2018-04-09T08:01:38.944Z,20.40
2018-04-09T08:04:07.056Z,20.00
2018-04-09T08:06:35.850Z,19.60
2018-04-09T08:09:03.924Z,19.20
2018-04-09T08:11:34.573Z,18.10
2018-04-09T08:14:02.588Z,18.60
2018-04-09T08:16:30.648Z,18.80
2018-04-09T08:18:58.747Z,18.20
2018-04-09T08:21:26.759Z,18.00
2018-04-09T08:23:54.828Z,17.80
2018-04-09T08:26:22.870Z,17.10
2018-04-09T08:28:50.938Z,16.90
2018-04-09T08:31:18.995Z,16.80
2018-04-09T08:33:47.814Z,16.00
2018-04-09T08:36:15.855Z,15.50
2018-04-09T08:38:44.696Z,15.70
2018-04-09T08:41:12.744Z,15.70
2018-04-09T08:43:40.816Z,15.70
2018-04-09T08:46:08.873Z,15.50
2018-04-09T08:48:36.955Z,15.10
2018-04-09T08:51:05.110Z,14.90
2018-04-09T08:53:33.119Z,15.20
2018-04-09T08:56:01.186Z,15.00
2018-04-09T08:58:29.261Z,14.40
2018-04-09T09:00:57.292Z,14.10
2018-04-09T09:03:25.350Z,14.00
2018-04-09T09:05:53.396Z,13.90
2018-04-09T09:08:22.431Z,14.40
2018-04-09T09:10:50.440Z,13.40
2018-04-09T09:13:18.486Z,13.10
2018-04-09T09:15:46.578Z,12.90
2018-04-09T09:18:14.622Z,13.00
2018-04-09T09:20:42.671Z,13.00
2018-04-09T09:23:11.599Z,12.40
2018-04-09T09:25:40.465Z,11.70
2018-04-09T09:28:08.543Z,11.70
2018-04-09T09:30:36.621Z,12.00
2018-04-09T09:33:04.780Z,11.90
2018-04-09T09:35:32.957Z,11.80
2018-04-09T09:38:01.083Z,12.00
2018-04-09T09:40:29.231Z,12.20
2018-04-09T09:42:57.458Z,13.00
2018-04-09T09:45:26.391Z,14.70
2018-04-09T09:47:54.586Z,15.00
2018-04-09T09:50:22.722Z,15.50
2018-04-09T09:52:50.863Z,16.10
2018-04-09T09:55:19.875Z,15.60
2018-04-09T09:57:48.727Z,15.40
2018-04-09T10:00:16.906Z,15.30
2018-04-09T10:02:51.813Z,15.40
2018-04-09T10:05:19.932Z,15.40
2018-04-09T10:07:48.024Z,16.00
2018-04-09T10:10:16.091Z,16.80
2018-04-09T10:12:44.895Z,16.70
2018-04-09T10:15:12.964Z,16.60
2018-04-09T10:17:41.045Z,15.60
2018-04-09T10:20:09.131Z,16.10
2018-04-09T10:22:37.238Z,16.30
2018-04-09T10:25:06.087Z,16.90
2018-04-09T10:27:34.931Z,16.90
2018-04-09T10:30:03.776Z,17.30
2018-04-09T10:32:31.835Z,17.00
2018-04-09T10:34:59.950Z,17.50
2018-04-09T10:37:28.777Z,18.70
2018-04-09T10:39:56.908Z,18.70
2018-04-09T10:42:24.987Z,19.10
2018-04-09T10:44:53.127Z,18.50
2018-04-09T10:47:21.221Z,18.30
2018-04-09T10:49:49.288Z,17.90
2018-04-09T10:52:17.406Z,17.80
2018-04-09T10:54:45.897Z,18.90
2018-04-09T10:57:18.629Z,19.00
2018-04-09T10:59:47.542Z,18.50
2018-04-09T11:02:16.356Z,18.40
2018-04-09T11:04:44.460Z,18.30
2018-04-09T11:07:12.503Z,18.00
2018-04-09T11:09:40.768Z,18.00
2018-04-09T11:12:08.779Z,18.30
2018-04-09T11:14:36.913Z,18.90
2018-04-09T11:17:04.923Z,19.10
2018-04-09T11:19:33.012Z,19.30
2018-04-09T11:22:01.081Z,19.40
2018-04-09T11:24:29.143Z,19.40
2018-04-09T11:26:57.270Z,19.80
2018-04-09T11:29:25.292Z,20.10
2018-04-09T11:31:53.344Z,19.40
2018-04-09T11:34:21.405Z,18.60
2018-04-09T11:36:49.559Z,18.50
2018-04-09T11:39:17.613Z,19.00
2018-04-09T11:41:46.421Z,19.70
2018-04-09T11:44:14.473Z,19.70
2018-04-09T11:46:43.322Z,20.70
2018-04-09T11:49:11.385Z,20.60
2018-04-09T11:51:39.439Z,20.80
2018-04-09T11:54:07.481Z,21.00
2018-04-09T11:56:36.306Z,22.40
2018-04-09T11:59:04.391Z,22.30
2018-04-09T12:01:32.453Z,22.60
2018-04-09T12:04:00.494Z,23.70
2018-04-09T12:06:28.592Z,23.60
2018-04-09T12:08:56.651Z,23.60
2018-04-09T12:11:24.700Z,24.20
2018-04-09T12:13:53.634Z,24.90
2018-04-09T12:16:21.707Z,24.80
2018-04-09T12:18:49.886Z,25.00
2018-04-09T12:21:17.937Z,24.30
2018-04-09T12:23:45.994Z,24.80
2018-04-09T12:26:14.850Z,24.30
2018-04-09T12:28:43.076Z,24.30
2018-04-09T12:31:11.086Z,24.70
2018-04-09T12:33:39.166Z,25.30
2018-04-09T12:36:07.954Z,25.80
2018-04-09T12:38:35.997Z,25.70
2018-04-09T12:41:04.089Z,24.30
2018-04-09T12:43:32.301Z,23.70
2018-04-09T12:46:00.373Z,23.60
2018-04-09T12:48:28.491Z,23.70
2018-04-09T12:50:56.553Z,24.20
2018-04-09T12:53:24.645Z,22.90
2018-04-09T12:55:52.760Z,23.30
2018-04-09T12:58:20.855Z,23.70
2018-04-09T13:00:48.937Z,25.80
2018-04-09T13:03:16.985Z,24.40
2018-04-09T13:05:45.083Z,24.00
2018-04-09T13:08:13.257Z,24.50
2018-04-09T13:10:41.293Z,24.70
2018-04-09T13:13:09.404Z,25.20
2018-04-09T13:15:37.467Z,24.80
2018-04-09T13:18:05.515Z,25.20
2018-04-09T13:20:33.613Z,25.60
2018-04-09T13:23:01.683Z,24.70
2018-04-09T13:25:30.636Z,25.50
2018-04-09T13:27:58.634Z,25.50
2018-04-09T13:30:26.698Z,25.40
2018-04-09T13:32:54.891Z,25.00
2018-04-09T13:35:23.023Z,24.50
2018-04-09T13:37:51.021Z,24.70
2018-04-09T13:40:19.233Z,25.00
2018-04-09T13:42:47.401Z,24.90
2018-04-09T13:45:15.450Z,25.50
2018-04-09T13:47:43.541Z,26.10
2018-04-09T13:50:11.532Z,25.40
2018-04-09T13:52:40.447Z,24.20
2018-04-09T13:55:08.554Z,24.20
2018-04-09T13:57:36.715Z,25.30
2018-04-09T14:00:04.781Z,25.70
2018-04-09T14:02:32.822Z,23.30
2018-04-09T14:05:01.666Z,25.90
2018-04-09T14:07:29.822Z,25.80
2018-04-09T14:09:57.896Z,26.50
2018-04-09T14:12:25.940Z,27.00
2018-04-09T14:14:54.013Z,25.90
2018-04-09T14:17:22.096Z,26.00
2018-04-09T14:19:50.143Z,26.60
2018-04-09T14:22:19.085Z,26.90
2018-04-09T14:24:47.263Z,27.40
2018-04-09T14:27:15.324Z,27.30
2018-04-09T14:29:43.378Z,28.80
2018-04-09T14:32:11.432Z,29.40
2018-04-09T14:34:39.539Z,29.90
2018-04-09T14:37:07.612Z,30.20
2018-04-09T14:39:35.659Z,29.60
2018-04-09T14:42:03.705Z,29.40
2018-04-09T14:44:32.755Z,30.50
2018-04-09T14:47:01.603Z,30.90
2018-04-09T14:49:29.646Z,31.00
2018-04-09T14:51:57.747Z,30.90
2018-04-09T14:54:25.768Z,30.30
2018-04-09T14:56:53.832Z,29.20
2018-04-09T14:59:21.905Z,29.50
2018-04-09T15:01:49.948Z,29.30
2018-04-09T15:04:18.009Z,28.80
2018-04-09T15:06:46.227Z,29.30
2018-04-09T15:09:14.302Z,29.50
2018-04-09T15:11:42.373Z,31.60
2018-04-09T15:14:10.400Z,31.70
2018-04-09T15:16:38.565Z,32.30
2018-04-09T15:19:06.647Z,33.10
2018-04-09T15:21:34.782Z,33.40
2018-04-09T15:24:02.825Z,32.20
2018-04-09T15:26:30.901Z,32.60
2018-04-09T15:28:58.941Z,32.20
2018-04-09T15:31:26.993Z,34.40
2018-04-09T15:33:55.057Z,35.20
2018-04-09T15:36:23.133Z,33.60
2018-04-09T15:38:51.940Z,31.20
2018-04-09T15:41:20.118Z,31.20
2018-04-09T15:43:49.022Z,30.80
2018-04-09T15:46:17.061Z,30.70
2018-04-09T15:48:45.337Z,30.60
2018-04-09T15:51:13.445Z,31.70
2018-04-09T15:53:41.627Z,31.10
2018-04-09T15:56:09.679Z,31.70
2018-04-09T15:58:37.755Z,31.80
2018-04-09T16:01:05.814Z,32.30
2018-04-09T16:03:33.885Z,31.70
2018-04-09T16:06:01.965Z,32.20
2018-04-09T16:08:30.065Z,32.70
2018-04-09T16:10:58.102Z,32.50
2018-04-09T16:13:26.212Z,32.80
2018-04-09T16:15:54.272Z,32.00
2018-04-09T16:18:22.318Z,32.70
2018-04-09T16:20:50.389Z,32.60
2018-04-09T16:23:18.460Z,33.30
2018-04-09T16:25:46.509Z,33.70
2018-04-09T16:28:15.334Z,34.30
2018-04-09T16:30:43.397Z,34.30
2018-04-09T16:33:11.465Z,34.50
2018-04-09T16:35:39.530Z,35.10
2018-04-09T16:38:07.571Z,34.80
2018-04-09T16:40:35.678Z,34.90
2018-04-09T16:43:03.720Z,35.30
2018-04-09T16:45:32.542Z,35.90
2018-04-09T16:48:00.637Z,35.90
2018-04-09T16:50:28.683Z,35.60
2018-04-09T16:52:56.730Z,36.10
2018-04-09T16:55:24.807Z,36.40
2018-04-09T16:57:52.875Z,36.20
2018-04-09T17:00:20.925Z,35.30
2018-04-09T17:02:49.770Z,35.50
2018-04-09T17:05:17.822Z,35.40
2018-04-09T17:07:45.876Z,34.80
2018-04-09T17:10:13.997Z,35.00
2018-04-09T17:12:42.081Z,35.40
2018-04-09T17:15:10.124Z,35.30
2018-04-09T17:17:38.162Z,35.40
2018-04-09T17:20:06.262Z,35.80
2018-04-09T17:22:34.290Z,36.00
2018-04-09T17:25:03.138Z,36.60
2018-04-09T17:27:31.218Z,36.10
2018-04-09T17:29:59.273Z,37.00
2018-04-09T17:32:28.103Z,37.80
2018-04-09T17:34:56.925Z,38.20
2018-04-09T17:37:24.984Z,37.50
2018-04-09T17:39:53.085Z,38.40
2018-04-09T17:42:21.157Z,38.90
2018-04-09T17:44:49.203Z,39.30
2018-04-09T17:47:17.260Z,39.70
2018-04-09T17:49:46.108Z,40.70
2018-04-09T17:52:14.276Z,40.60
2018-04-09T17:54:42.378Z,41.20
2018-04-09T17:57:10.522Z,41.40
2018-04-09T17:59:38.621Z,42.10
2018-04-09T18:02:06.785Z,42.20
2018-04-09T18:04:34.970Z,42.30
2018-04-09T18:07:03.220Z,43.00
2018-04-09T18:09:31.381Z,43.10
2018-04-09T18:11:59.505Z,43.50
2018-04-09T18:14:27.590Z,43.60
2018-04-09T18:16:56.471Z,44.30
2018-04-09T18:19:25.388Z,44.60
2018-04-09T18:21:53.409Z,44.60
2018-04-09T18:24:21.473Z,44.90
2018-04-09T18:26:49.556Z,45.10
2018-04-09T18:29:17.654Z,45.30
2018-04-09T18:31:47.290Z,45.10
2018-04-09T18:34:15.364Z,45.60
2018-04-09T18:36:43.468Z,45.70
2018-04-09T18:39:11.588Z,45.50
2018-04-09T18:41:39.664Z,45.90
2018-04-09T18:44:08.487Z,46.70
2018-04-09T18:46:37.421Z,46.90
2018-04-09T18:49:06.237Z,48.00
2018-04-09T18:51:34.281Z,47.30
2018-04-09T18:54:03.130Z,47.80
2018-04-09T18:56:33.723Z,47.50
2018-04-09T18:59:03.363Z,48.20
2018-04-09T19:01:31.492Z,47.70
2018-04-09T19:04:00.385Z,48.70
2018-04-09T19:06:29.209Z,49.00
2018-04-09T19:08:57.302Z,48.50
2018-04-09T19:11:25.343Z,48.60
2018-04-09T19:13:53.516Z,48.70
2018-04-09T19:16:22.021Z,49.00
2018-04-09T19:18:50.089Z,49.10
2018-04-09T19:21:18.120Z,49.40
2018-04-09T19:23:46.990Z,50.00
2018-04-09T19:26:15.451Z,49.50
2018-04-09T19:28:43.518Z,49.80
2018-04-09T19:31:11.672Z,49.90
2018-04-09T19:33:39.681Z,50.00
2018-04-09T19:36:13.296Z,50.20
2018-04-09T19:38:47.076Z,50.40
2018-04-09T19:41:15.157Z,50.50
2018-04-09T19:43:43.317Z,51.10
2018-04-09T19:46:11.380Z,51.50
2018-04-09T19:48:40.213Z,51.40
2018-04-09T19:51:08.265Z,50.90
2018-04-09T19:53:36.330Z,51.60
2018-04-09T19:56:04.385Z,51.60
2018-04-09T19:58:32.428Z,51.70
2018-04-09T20:01:00.517Z,51.80
2018-04-09T20:03:28.555Z,52.10
2018-04-09T20:05:56.680Z,52.20
2018-04-09T20:08:24.785Z,52.30
2018-04-09T20:10:52.908Z,52.50
2018-04-09T20:13:20.947Z,52.60
2018-04-09T20:15:49.011Z,52.90
2018-04-09T20:18:17.081Z,53.10
2018-04-09T20:20:45.258Z,53.20
2018-04-09T20:23:13.285Z,53.30
2018-04-09T20:25:41.357Z,53.50
2018-04-09T20:28:09.399Z,53.60
2018-04-09T20:30:37.463Z,53.80
2018-04-09T20:33:05.510Z,53.90
2018-04-09T20:35:33.593Z,54.20
2018-04-09T20:38:01.681Z,54.50
2018-04-09T20:40:29.753Z,54.70
2018-04-09T20:42:57.821Z,55.00
2018-04-09T20:45:25.865Z,55.10
2018-04-09T20:47:53.956Z,55.30
2018-04-09T20:50:22.014Z,55.60
2018-04-09T20:52:50.078Z,55.70
2018-04-09T20:55:18.126Z,55.90
2018-04-09T20:57:46.267Z,56.00
2018-04-09T21:00:14.360Z,56.20
2018-04-09T21:02:42.599Z,56.20
2018-04-09T21:05:10.617Z,56.30
2018-04-09T21:07:38.670Z,56.40
2018-04-09T21:10:06.780Z,56.60
2018-04-09T21:12:35.604Z,56.70
2018-04-09T21:15:03.774Z,56.60
2018-04-09T21:17:31.850Z,56.60
2018-04-09T21:20:00.039Z,56.90
2018-04-09T21:22:28.850Z,57.00
2018-04-09T21:24:56.891Z,56.90
2018-04-09T21:27:25.112Z,57.10
2018-04-09T21:29:53.155Z,57.00
2018-04-09T21:32:21.197Z,57.00
2018-04-09T21:34:49.314Z,57.20
2018-04-09T21:37:17.346Z,57.20
2018-04-09T21:39:45.409Z,57.30
2018-04-09T21:42:13.480Z,57.30
2018-04-09T21:44:41.560Z,57.30
2018-04-09T21:47:09.624Z,57.30
2018-04-09T21:49:37.714Z,57.60
2018-04-09T21:52:05.741Z,57.70
2018-04-09T21:54:33.834Z,57.60
2018-04-09T21:57:01.856Z,57.70
2018-04-09T21:59:30.676Z,58.20
2018-04-09T22:01:58.769Z,58.00
2018-04-09T22:04:26.815Z,58.30
2018-04-09T22:06:54.846Z,58.50
2018-04-09T22:09:22.901Z,58.70
2018-04-09T22:11:50.944Z,58.90
2018-04-09T22:14:19.017Z,58.90
2018-04-09T22:16:47.091Z,59.10
2018-04-09T22:19:15.120Z,59.30
2018-04-09T22:21:43.960Z,59.30
2018-04-09T22:24:12.100Z,59.30
2018-04-09T22:26:40.905Z,59.60
2018-04-09T22:29:08.969Z,59.60
2018-04-09T22:31:37.018Z,59.60
2018-04-09T22:34:05.858Z,59.60
2018-04-09T22:36:33.898Z,59.50
2018-04-09T22:39:01.950Z,59.60
2018-04-09T22:41:30.793Z,59.80
2018-04-09T22:43:58.829Z,59.70
2018-04-09T22:46:26.904Z,59.60
2018-04-09T22:48:54.991Z,59.80
2018-04-09T22:51:23.074Z,59.70
2018-04-09T22:53:51.137Z,59.80
2018-04-09T22:56:19.175Z,59.70
2018-04-09T22:58:47.217Z,59.40
2018-04-09T23:01:15.285Z,59.30
2018-04-09T23:03:43.329Z,59.20
2018-04-09T23:06:11.392Z,59.30
2018-04-09T23:08:39.447Z,60.00
2018-04-09T23:11:07.539Z,59.70
2018-04-09T23:13:35.591Z,59.60
2018-04-09T23:16:03.665Z,59.60
2018-04-09T23:18:32.648Z,59.70
2018-04-09T23:21:00.684Z,60.60
2018-04-09T23:23:28.754Z,60.10
2018-04-09T23:25:56.809Z,60.50
2018-04-09T23:28:24.881Z,60.90
2018-04-09T23:30:52.936Z,61.10
2018-04-09T23:33:21.021Z,61.70
2018-04-09T23:35:49.974Z,62.40
2018-04-09T23:38:18.052Z,61.90
2018-04-09T23:40:46.143Z,62.10
2018-04-09T23:43:14.196Z,62.50
2018-04-09T23:45:42.275Z,62.70
2018-04-09T23:48:10.351Z,62.90
2018-04-09T23:50:38.387Z,63.30
2018-04-09T23:53:07.218Z,63.70
2018-04-09T23:55:35.264Z,63.70
2018-04-09T23:58:03.338Z,64.10
